Somerset, KY (42501)

9:27 AM EST on December 04, 2016 (GMT -0500)
APRSWXNET | | Change Station

Elev 1089 ft 37.12 °N, 84.56 °W | Updated 30 minutes ago

Overcast
Overcast
38 °F
Feels Like 38 °F
N
0
Wind Variable Wind from SE
Gusts 1.0 mph

Today
High -- | Low -- °F
--% Chance of Precip.
Yesterday
High -- | Low -- °F
Precip. -- in
Pressure 30.13 in
Visibility 7.0 miles
Clouds Mostly Cloudy 4000 ft
Overcast 4600 ft
Windchill 38 °F
Dew Point 36 °F
Humidity 91%
Rainfall in
Snow Depth Not available.
7:36 AM 5:21 PM
Waxing Crescent, 23% visible
METAR KSME 041415Z AUTO 11005KT 7SM BKN040 OVC046 03/03 A3013 RMK AO2
Pressure 30.13 in
Visibility 7.0 miles
Clouds Mostly Cloudy 4000 ft
Overcast 4600 ft
Windchill 38 °F
Dew Point 36 °F
Humidity 91%
Rainfall in
Snow Depth Not available.
7:36 AM 5:21 PM
Waxing Crescent, 23% visible
METAR KSME 041415Z AUTO 11005KT 7SM BKN040 OVC046 03/03 A3013 RMK AO2

10-Day Weather Forecast

Almanac

Astronomy

Dec. 04, 2016 Rise Set
Actual Time
Civil Twilight
Nautical Twilight
Astronomical Twilight
Moon
Length of Visible Light
Length of Day
Tomorrow will be .
, % of the Moon is Illuminated

Today's Extremes

State Highs State Lows

Community

WunderPhotos

Upload Photos

1,955,598 photos uploaded!

WunderBlog® & News

Nearby

Air Quality

  Air Quality AQ Index Pollutant
Not available.

Snow Depth

Station Depth Elevation

Earthquake Activity

City Distance Mag. Time & Date
Minimum magnitude displayed is 2.5.

Coastal Water Temperatures

Place Temperature

Stations

Nearby Weather Stations

Station Location Temp. Windchill Dew Point Humidity Wind Precip. Elev Updated Type
                   

Watches & Warnings

There are currently no watches in effect.